createdAt,value
2019-05-18T00:02:12.991Z,99302.44
2019-05-18T00:06:20.996Z,99281.22
2019-05-18T00:10:28.562Z,99253.66
2019-05-18T00:14:37.156Z,99250.86
2019-05-18T00:18:45.041Z,99230.81
2019-05-18T00:22:53.275Z,99234.12
2019-05-18T00:27:01.714Z,99229.78
2019-05-18T00:31:10.440Z,99223.64
2019-05-18T00:35:18.061Z,99196.69
2019-05-18T00:39:26.229Z,99189.05
2019-05-18T00:43:33.874Z,99181.09
2019-05-18T00:47:42.580Z,99162.31
2019-05-18T00:51:50.733Z,99155.34
2019-05-18T00:55:58.426Z,99135.02
2019-05-18T01:00:07.742Z,99138.17
2019-05-18T01:04:15.415Z,99146.44
2019-05-18T01:08:23.299Z,99140.13
2019-05-18T01:12:31.207Z,99134.53
2019-05-18T01:16:39.096Z,99147.58
2019-05-18T01:20:47.735Z,99156.48
2019-05-18T01:24:55.937Z,99158.64
2019-05-18T01:29:04.895Z,99171.58
2019-05-18T01:33:13.219Z,99190.70
2019-05-18T01:37:20.909Z,99210.89
2019-05-18T01:41:28.851Z,99232.84
2019-05-18T01:45:36.829Z,99238.30
2019-05-18T01:49:44.379Z,99249.62
2019-05-18T01:53:52.896Z,99247.83
2019-05-18T01:58:01.021Z,99253.08
2019-05-18T02:02:08.416Z,99254.01
2019-05-18T02:06:16.400Z,99251.38
2019-05-18T02:10:24.540Z,99262.30
2019-05-18T02:14:32.135Z,99256.98
2019-05-18T02:18:40.448Z,99266.78
2019-05-18T02:22:48.511Z,99266.09
2019-05-18T02:26:56.534Z,99270.02
2019-05-18T02:31:04.542Z,99260.99
2019-05-18T02:35:12.242Z,99267.75
2019-05-18T02:39:20.734Z,99265.56
2019-05-18T02:43:28.653Z,99268.25
2019-05-18T02:47:37.181Z,99269.13
2019-05-18T02:51:45.058Z,99266.91
2019-05-18T02:55:53.439Z,99270.55
2019-05-18T03:00:02.378Z,99264.33
2019-05-18T03:04:10.348Z,99266.59
2019-05-18T03:08:18.360Z,99259.64
2019-05-18T03:12:26.362Z,99277.87
2019-05-18T03:16:35.137Z,99272.84
2019-05-18T03:20:43.650Z,99269.03
2019-05-18T03:24:51.858Z,99271.61
2019-05-18T03:29:00.356Z,99267.91
2019-05-18T03:33:08.485Z,99259.73
2019-05-18T03:37:15.935Z,99243.60
2019-05-18T03:41:23.932Z,99240.21
2019-05-18T03:45:32.295Z,99245.39
2019-05-18T03:49:40.066Z,99249.31
2019-05-18T03:53:48.123Z,99257.91
2019-05-18T03:57:56.207Z,99253.87
2019-05-18T04:02:03.691Z,99267.72
2019-05-18T04:06:11.686Z,99267.94
2019-05-18T04:10:26.579Z,99266.00
2019-05-18T04:14:35.129Z,99258.46
2019-05-18T04:18:43.238Z,99252.24
2019-05-18T04:22:51.134Z,99234.88
2019-05-18T04:26:59.365Z,99237.91
2019-05-18T04:31:07.032Z,99223.11
2019-05-18T04:35:15.306Z,99229.74
2019-05-18T04:39:23.706Z,99226.73
2019-05-18T04:43:31.430Z,99228.50
2019-05-18T04:47:39.585Z,99222.48
2019-05-18T04:51:47.558Z,99235.20
2019-05-18T04:55:55.847Z,99241.84
2019-05-18T05:00:03.991Z,99233.66
2019-05-18T05:04:11.382Z,99242.38
2019-05-18T05:08:19.817Z,99228.50
2019-05-18T05:12:27.817Z,99224.88
2019-05-18T05:16:35.648Z,99224.88
2019-05-18T05:20:44.420Z,99222.81
2019-05-18T05:24:52.294Z,99224.36
2019-05-18T05:29:00.287Z,99228.05
2019-05-18T05:33:08.186Z,99224.80
2019-05-18T05:37:16.237Z,99222.94
2019-05-18T05:41:24.242Z,99227.12
2019-05-18T05:45:32.235Z,99227.12
2019-05-18T05:49:39.851Z,99229.20
2019-05-18T05:53:48.408Z,99229.97
2019-05-18T05:57:55.946Z,99229.97
2019-05-18T06:02:05.140Z,99216.63
2019-05-18T06:06:13.472Z,99211.88
2019-05-18T06:10:21.282Z,99195.86
2019-05-18T06:14:29.267Z,99195.55
2019-05-18T06:18:37.620Z,99198.69
2019-05-18T06:22:45.163Z,99191.05
2019-05-18T06:26:53.517Z,99187.59
2019-05-18T06:31:01.413Z,99182.12
2019-05-18T06:35:09.561Z,99179.55
2019-05-18T06:39:17.898Z,99177.44
2019-05-18T06:43:25.286Z,99197.42
2019-05-18T06:47:33.278Z,99203.92
2019-05-18T06:51:41.261Z,99208.27
2019-05-18T06:55:49.225Z,99200.08
2019-05-18T06:59:57.405Z,99202.02
2019-05-18T07:04:05.060Z,99210.91
2019-05-18T07:08:13.287Z,99208.45
2019-05-18T07:12:21.082Z,99216.86
2019-05-18T07:16:29.217Z,99213.56
2019-05-18T07:20:37.647Z,99203.53
2019-05-18T07:24:45.445Z,99209.03
2019-05-18T07:28:53.563Z,99229.88
2019-05-18T07:33:01.073Z,99227.34
2019-05-18T07:37:08.836Z,99220.91
2019-05-18T07:41:16.837Z,99222.20
2019-05-18T07:45:25.323Z,99211.30
2019-05-18T07:49:33.657Z,99215.31
2019-05-18T07:53:41.832Z,99207.84
2019-05-18T07:57:49.581Z,99216.13
2019-05-18T08:01:57.799Z,99202.86
2019-05-18T08:06:05.700Z,99206.48
2019-05-18T08:10:13.574Z,99192.59
2019-05-18T08:14:21.613Z,99198.10
2019-05-18T08:18:29.338Z,99192.36
2019-05-18T08:22:38.059Z,99189.67
2019-05-18T08:26:46.217Z,99187.23
2019-05-18T08:30:53.887Z,99193.89
2019-05-18T08:35:01.537Z,99180.90
2019-05-18T08:39:09.244Z,99196.17
2019-05-18T08:43:17.021Z,99196.17
2019-05-18T08:47:25.302Z,99183.77
2019-05-18T08:51:33.142Z,99184.30
2019-05-18T08:55:41.104Z,99182.94
2019-05-18T08:59:49.162Z,99186.30
2019-05-18T09:03:58.439Z,99187.35
2019-05-18T09:08:06.519Z,99182.86
2019-05-18T09:12:14.101Z,99182.86
2019-05-18T09:16:23.151Z,99169.46
2019-05-18T09:20:31.163Z,99169.23
2019-05-18T09:24:38.760Z,99170.66
2019-05-18T09:28:47.152Z,99172.87
2019-05-18T09:32:54.840Z,99163.29
2019-05-18T09:37:03.341Z,99163.29
2019-05-18T09:41:11.323Z,99145.73
2019-05-18T09:45:19.580Z,99157.70
2019-05-18T09:49:27.075Z,99160.76
2019-05-18T09:53:35.513Z,99160.76
2019-05-18T09:57:43.072Z,99162.67
2019-05-18T10:01:51.298Z,99161.57
2019-05-18T10:05:59.815Z,99172.84
2019-05-18T10:10:07.740Z,99167.02
2019-05-18T10:14:15.826Z,99179.97
2019-05-18T10:18:23.481Z,99179.97
2019-05-18T10:22:31.477Z,99172.56
2019-05-18T10:26:39.029Z,99173.64
2019-05-18T10:30:48.110Z,99178.61
2019-05-18T10:34:55.873Z,99178.61
2019-05-18T10:39:05.330Z,99178.60
2019-05-18T10:43:13.334Z,99180.50
2019-05-18T10:47:28.375Z,99181.88
2019-05-18T10:51:36.916Z,99180.24
2019-05-18T10:55:44.905Z,99174.14
2019-05-18T10:59:52.769Z,99174.14
2019-05-18T11:04:00.251Z,99177.58
2019-05-18T11:08:08.015Z,99177.83
2019-05-18T11:12:16.445Z,99177.14
2019-05-18T11:16:24.018Z,99178.57
2019-05-18T11:20:32.875Z,99187.90
2019-05-18T11:24:40.460Z,99182.42
2019-05-18T11:28:48.645Z,99176.52
2019-05-18T11:32:56.706Z,99178.00
2019-05-18T11:37:04.301Z,99176.97
2019-05-18T11:41:12.896Z,99183.80
2019-05-18T11:45:21.452Z,99176.03
2019-05-18T11:49:29.293Z,99177.83
2019-05-18T11:53:37.447Z,99176.02
2019-05-18T11:57:45.130Z,99174.89
2019-05-18T12:01:53.570Z,99181.71
2019-05-18T12:06:01.571Z,99177.77
2019-05-18T12:10:10.037Z,99179.13
2019-05-18T12:14:18.210Z,99164.83
2019-05-18T12:18:25.986Z,99170.65
2019-05-18T12:22:35.515Z,99164.16
2019-05-18T12:26:43.583Z,99165.55
2019-05-18T12:30:51.756Z,99163.55
2019-05-18T12:34:59.523Z,99163.19
2019-05-18T12:39:08.075Z,99154.24
2019-05-18T12:43:15.794Z,99167.05
2019-05-18T12:47:23.863Z,99167.69
2019-05-18T12:51:31.450Z,99165.05
2019-05-18T12:55:39.611Z,99158.42
2019-05-18T12:59:47.288Z,99154.50
2019-05-18T13:03:54.759Z,99151.47
2019-05-18T13:08:02.641Z,99156.34
2019-05-18T13:12:11.805Z,99143.83
2019-05-18T13:16:19.710Z,99151.86
2019-05-18T13:20:27.974Z,99143.26
2019-05-18T13:24:44.801Z,99144.41
2019-05-18T13:28:47.319Z,99145.31
2019-05-18T13:32:54.950Z,99157.59
2019-05-18T13:37:02.739Z,99157.61
2019-05-18T13:41:10.411Z,99161.70
2019-05-18T13:45:18.482Z,99158.37
2019-05-18T13:49:26.568Z,99161.31
2019-05-18T13:53:34.769Z,99159.38
2019-05-18T13:57:42.335Z,99147.98
2019-05-18T14:01:50.415Z,99149.91
2019-05-18T14:05:58.468Z,99143.64
2019-05-18T14:10:07.041Z,99150.75
2019-05-18T14:14:15.105Z,99150.80
2019-05-18T14:18:22.891Z,99161.83
2019-05-18T14:22:30.824Z,99169.79
2019-05-18T14:26:39.246Z,99181.61
2019-05-18T14:30:46.724Z,99173.67
2019-05-18T14:34:55.589Z,99173.67
2019-05-18T14:39:03.564Z,99183.81
2019-05-18T14:43:11.801Z,99189.73
2019-05-18T14:47:20.452Z,99178.44
2019-05-18T14:51:28.797Z,99187.18
2019-05-18T14:55:36.875Z,99180.98
2019-05-18T14:59:44.549Z,99182.88
2019-05-18T15:03:52.609Z,99179.04
2019-05-18T15:08:00.759Z,99179.04
2019-05-18T15:12:08.323Z,99174.93
2019-05-18T15:16:16.406Z,99174.93
2019-05-18T15:20:24.591Z,99180.94
2019-05-18T15:24:32.255Z,99180.94
2019-05-18T15:28:40.680Z,99194.34
2019-05-18T15:32:48.360Z,99194.34
2019-05-18T15:36:56.405Z,99190.48
2019-05-18T15:41:04.235Z,99192.87
2019-05-18T15:45:12.548Z,99190.59
2019-05-18T15:49:20.555Z,99193.59
2019-05-18T15:53:28.470Z,99192.17
2019-05-18T15:57:37.189Z,99195.48
2019-05-18T16:01:45.647Z,99192.48
2019-05-18T16:05:53.162Z,99189.98
2019-05-18T16:10:01.145Z,99200.03
2019-05-18T16:14:09.177Z,99203.83
2019-05-18T16:18:17.219Z,99205.98
2019-05-18T16:22:25.210Z,99208.09
2019-05-18T16:26:32.995Z,99209.45
2019-05-18T16:30:41.027Z,99217.55
2019-05-18T16:34:48.722Z,99213.09
2019-05-18T16:38:57.053Z,99216.85
2019-05-18T16:43:05.370Z,99216.66
2019-05-18T16:47:13.077Z,99213.77
2019-05-18T16:51:21.716Z,99219.70
2019-05-18T16:55:30.170Z,99219.06
2019-05-18T16:59:38.239Z,99225.06
2019-05-18T17:03:46.481Z,99229.94
2019-05-18T17:07:54.386Z,99228.22
2019-05-18T17:12:02.673Z,99231.33
2019-05-18T17:16:11.823Z,99230.08
2019-05-18T17:20:19.614Z,99230.08
2019-05-18T17:24:27.660Z,99228.90
2019-05-18T17:28:35.783Z,99228.90
2019-05-18T17:32:43.997Z,99233.78
2019-05-18T17:36:52.625Z,99233.78
2019-05-18T17:41:00.826Z,99236.08
2019-05-18T17:45:08.909Z,99246.00
2019-05-18T17:49:26.380Z,99250.85
2019-05-18T17:53:26.573Z,99250.85
2019-05-18T17:57:35.251Z,99243.88
2019-05-18T18:01:43.020Z,99245.08
2019-05-18T18:05:50.802Z,99233.27
2019-05-18T18:09:58.598Z,99240.33
2019-05-18T18:14:07.114Z,99240.62
2019-05-18T18:18:15.541Z,99239.78
2019-05-18T18:22:23.905Z,99241.94
2019-05-18T18:26:32.389Z,99241.36
2019-05-18T18:30:40.620Z,99243.14
2019-05-18T18:34:48.426Z,99252.58
2019-05-18T18:38:56.926Z,99254.41
2019-05-18T18:43:05.051Z,99256.31
2019-05-18T18:47:12.648Z,99254.55
2019-05-18T18:51:20.256Z,99252.88
2019-05-18T18:55:27.920Z,99255.75
2019-05-18T18:59:36.011Z,99251.52
2019-05-18T19:03:44.361Z,99250.35
2019-05-18T19:07:52.160Z,99249.20
2019-05-18T19:12:00.137Z,99255.16
2019-05-18T19:16:08.341Z,99257.89
2019-05-18T19:20:16.117Z,99254.12
2019-05-18T19:24:24.101Z,99255.34
2019-05-18T19:28:31.809Z,99258.19
2019-05-18T19:32:40.088Z,99269.20
2019-05-18T19:36:47.833Z,99267.17
2019-05-18T19:40:56.056Z,99266.66
2019-05-18T19:45:04.815Z,99264.88
2019-05-18T19:49:12.693Z,99259.71
2019-05-18T19:53:20.843Z,99267.14
2019-05-18T19:57:29.442Z,99275.06
2019-05-18T20:01:37.417Z,99268.33
2019-05-18T20:05:44.907Z,99278.35
2019-05-18T20:09:53.082Z,99278.78
2019-05-18T20:14:01.010Z,99279.92
2019-05-18T20:18:08.792Z,99284.83
2019-05-18T20:22:16.996Z,99287.61
2019-05-18T20:26:24.918Z,99289.58
2019-05-18T20:30:33.144Z,99293.41
2019-05-18T20:34:41.352Z,99297.83
2019-05-18T20:38:49.072Z,99300.55
2019-05-18T20:42:57.205Z,99299.63
2019-05-18T20:47:05.316Z,99307.00
2019-05-18T20:51:12.937Z,99309.89
2019-05-18T20:55:20.920Z,99297.19
2019-05-18T20:59:28.531Z,99302.44
2019-05-18T21:03:36.127Z,99298.83
2019-05-18T21:07:44.847Z,99299.11
2019-05-18T21:11:52.779Z,99306.27
2019-05-18T21:16:01.007Z,99304.19
2019-05-18T21:20:09.143Z,99303.16
2019-05-18T21:24:17.041Z,99302.27
2019-05-18T21:28:25.028Z,99300.48
2019-05-18T21:32:32.499Z,99302.77
2019-05-18T21:36:40.485Z,99304.95
2019-05-18T21:40:48.609Z,99301.66
2019-05-18T21:44:56.392Z,99298.48
2019-05-18T21:49:04.425Z,99293.22
2019-05-18T21:53:12.122Z,99300.53
2019-05-18T21:57:20.626Z,99300.70
2019-05-18T22:01:29.126Z,99291.16
2019-05-18T22:05:37.268Z,99280.94
2019-05-18T22:09:46.099Z,99285.77
2019-05-18T22:13:54.323Z,99274.89
2019-05-18T22:18:04.821Z,99276.67
2019-05-18T22:22:13.033Z,99267.39
2019-05-18T22:26:21.352Z,99265.88
2019-05-18T22:30:28.783Z,99266.92
2019-05-18T22:34:36.965Z,99263.00
2019-05-18T22:38:44.836Z,99264.73
2019-05-18T22:42:52.731Z,99259.72
2019-05-18T22:47:00.992Z,99260.27
2019-05-18T22:51:08.373Z,99251.66
2019-05-18T22:55:16.470Z,99247.26
2019-05-18T22:59:24.454Z,99248.64
2019-05-18T23:03:32.091Z,99240.62
2019-05-18T23:07:40.107Z,99253.18
2019-05-18T23:11:47.509Z,99254.05
2019-05-18T23:15:55.693Z,99253.66
2019-05-18T23:20:03.679Z,99254.48
2019-05-18T23:24:12.440Z,99256.53
2019-05-18T23:28:20.507Z,99251.00
2019-05-18T23:32:28.518Z,99250.80
2019-05-18T23:36:36.012Z,99252.60
2019-05-18T23:40:43.994Z,99254.73
2019-05-18T23:44:51.996Z,99253.50
2019-05-18T23:49:10.431Z,99255.46
2019-05-18T23:53:09.357Z,99254.94
2019-05-18T23:57:17.063Z,99261.30
